Time;durP1;ratioP1;P1;durP2;ratioP2;P2;SDS_P1;SDS_P2;PMS_P1;PMS_P2;Temp;Humidity;BMP_temperature;BMP_pressure;BME280_temperature;BME280_humidity;BME280_pressure;Samples;Min_cycle;Max_cycle;Signal;HPM_P1;HPM_P2
2021/11/04 00:00:36;;;;;;;17.23;10.60;;;6.00;99.90;;;;;;5112948;28;20560;-73
2021/11/04 00:03:03;;;;;;;18.57;11.37;;;6.00;99.90;;;;;;5113206;28;20043;-73
2021/11/04 00:05:30;;;;;;;18.27;12.33;;;5.90;99.90;;;;;;5112880;28;20047;-73
2021/11/04 00:07:58;;;;;;;19.97;12.53;;;5.90;99.90;;;;;;5112964;28;20499;-74
2021/11/04 00:10:26;;;;;;;20.53;12.40;;;6.00;99.90;;;;;;5112885;28;20050;-72
2021/11/04 00:12:54;;;;;;;21.83;12.30;;;6.00;99.90;;;;;;5112881;28;20105;-73
2021/11/04 00:15:21;;;;;;;18.03;12.10;;;6.00;99.90;;;;;;5112668;28;20051;-73
2021/11/04 00:17:48;;;;;;;15.87;10.53;;;5.90;99.90;;;;;;5112919;28;20453;-73
2021/11/04 00:20:17;;;;;;;17.20;11.07;;;5.90;99.90;;;;;;5112827;28;20051;-74
2021/11/04 00:22:45;;;;;;;19.57;12.30;;;6.00;99.90;;;;;;5112883;28;20097;-72
2021/11/04 00:25:11;;;;;;;20.73;12.73;;;6.00;99.90;;;;;;5112226;28;20096;-73
2021/11/04 00:27:38;;;;;;;23.53;13.07;;;6.00;99.90;;;;;;5112743;28;20096;-74
2021/11/04 00:30:09;;;;;;;21.87;12.70;;;6.00;99.90;;;;;;5112793;28;20104;-73
2021/11/04 00:32:36;;;;;;;20.53;13.10;;;6.00;99.90;;;;;;5112957;28;20092;-73
2021/11/04 00:35:03;;;;;;;18.10;12.20;;;5.90;99.90;;;;;;5112331;28;20048;-74
2021/11/04 00:37:30;;;;;;;17.53;12.07;;;5.80;99.90;;;;;;5112697;28;20047;-72
2021/11/04 00:39:57;;;;;;;25.57;15.47;;;5.80;99.90;;;;;;5112718;28;20051;-72
2021/11/04 00:42:23;;;;;;;23.27;14.07;;;5.80;99.90;;;;;;5112791;28;20104;-74
2021/11/04 00:44:50;;;;;;;26.70;13.70;;;5.80;99.90;;;;;;5112111;28;20067;-73
2021/11/04 00:47:18;;;;;;;23.33;14.40;;;5.90;99.90;;;;;;5112375;28;20070;-73
2021/11/04 00:49:44;;;;;;;21.77;13.10;;;5.90;99.90;;;;;;5112095;28;20556;-75
2021/11/04 00:52:11;;;;;;;23.23;13.97;;;5.90;99.90;;;;;;5112252;28;20051;-73
2021/11/04 00:54:38;;;;;;;20.53;12.17;;;5.80;99.90;;;;;;5111762;28;20048;-73
2021/11/04 00:57:05;;;;;;;23.70;13.43;;;5.90;99.90;;;;;;5112577;28;20557;-73
2021/11/04 00:59:32;;;;;;;23.40;13.63;;;5.90;99.90;;;;;;5112893;28;20506;-71
2021/11/04 01:01:58;;;;;;;24.23;13.03;;;5.90;99.90;;;;;;5112774;28;20116;-72
2021/11/04 01:04:26;;;;;;;24.57;14.10;;;5.90;99.90;;;;;;5112624;28;20048;-73
2021/11/04 01:06:53;;;;;;;24.77;16.17;;;5.80;99.90;;;;;;5112595;28;20040;-73
2021/11/04 01:09:19;;;;;;;23.70;14.60;;;5.90;99.90;;;;;;5112600;28;20537;-73
2021/11/04 01:11:46;;;;;;;26.43;15.60;;;5.90;99.90;;;;;;5112389;28;20047;-74
2021/11/04 01:14:13;;;;;;;25.53;13.87;;;5.90;99.90;;;;;;5111892;28;20080;-73
2021/11/04 01:16:39;;;;;;;22.43;13.83;;;5.90;99.90;;;;;;5112650;28;20051;-74
2021/11/04 01:19:06;;;;;;;26.93;16.77;;;5.90;99.90;;;;;;5112171;28;20044;-74
2021/11/04 01:21:34;;;;;;;21.87;15.90;;;5.90;99.90;;;;;;5111989;28;20449;-73
2021/11/04 01:24:01;;;;;;;23.30;13.90;;;5.90;99.90;;;;;;5111705;28;20073;-73
2021/11/04 01:26:28;;;;;;;21.87;14.50;;;5.90;99.90;;;;;;5112409;28;20044;-73
2021/11/04 01:28:54;;;;;;;29.63;15.57;;;5.80;99.90;;;;;;5112209;28;20039;-73
2021/11/04 01:31:21;;;;;;;26.83;15.10;;;5.70;99.90;;;;;;5112479;28;20105;-74
2021/11/04 01:33:48;;;;;;;22.80;13.50;;;5.80;99.90;;;;;;5111810;28;20051;-73
2021/11/04 01:36:14;;;;;;;23.97;14.17;;;5.70;99.90;;;;;;5112047;28;20044;-74
2021/11/04 01:38:42;;;;;;;23.37;15.63;;;5.80;99.90;;;;;;5112301;28;20047;-73
2021/11/04 01:41:09;;;;;;;24.53;14.93;;;5.80;99.90;;;;;;5112204;28;20047;-72
2021/11/04 01:43:36;;;;;;;23.97;14.70;;;5.90;99.90;;;;;;5111483;28;20097;-72
2021/11/04 01:46:02;;;;;;;23.37;15.20;;;5.90;99.90;;;;;;5112058;28;20044;-73
2021/11/04 01:48:29;;;;;;;26.83;15.17;;;6.00;99.90;;;;;;5111688;28;20100;-74
2021/11/04 01:50:57;;;;;;;33.70;17.07;;;6.00;99.90;;;;;;5111729;28;20556;-72
2021/11/04 01:53:24;;;;;;;29.20;17.90;;;6.00;99.90;;;;;;5111589;28;20446;-73
2021/11/04 01:55:52;;;;;;;23.47;14.47;;;6.10;99.90;;;;;;5111602;28;20047;-73
2021/11/04 01:58:19;;;;;;;26.93;16.03;;;6.10;99.90;;;;;;5111777;28;20044;-73
2021/11/04 02:00:46;;;;;;;29.30;18.97;;;6.00;99.90;;;;;;5111604;28;20051;-73
2021/11/04 02:03:20;;;;;;;28.60;17.00;;;6.00;99.90;;;;;;5111166;28;20487;-73
2021/11/04 02:05:55;;;;;;;27.63;16.80;;;6.10;99.90;;;;;;5112085;28;20092;-74
2021/11/04 02:08:27;;;;;;;29.77;17.70;;;6.00;99.90;;;;;;5113245;28;20480;-73
2021/11/04 02:11:00;;;;;;;28.00;17.27;;;6.10;99.90;;;;;;5115281;28;20491;-73
2021/11/04 02:13:31;;;;;;;25.60;15.87;;;6.10;99.90;;;;;;5115151;28;20618;-73
2021/11/04 02:16:00;;;;;;;29.63;17.27;;;6.10;99.90;;;;;;5114971;28;20445;-73
2021/11/04 02:18:29;;;;;;;27.13;17.40;;;6.10;99.90;;;;;;5115371;28;20043;-73
2021/11/04 02:21:05;;;;;;;26.93;16.50;;;6.10;99.90;;;;;;5115162;28;20050;-73
2021/11/04 02:23:36;;;;;;;28.73;17.00;;;6.10;99.90;;;;;;5114607;28;20044;-74
2021/11/04 02:26:05;;;;;;;26.45;15.75;;;6.00;99.90;;;;;;5113603;28;20093;-74
2021/11/04 02:28:34;;;;;;;27.47;17.17;;;6.10;99.90;;;;;;5114910;28;20073;-74
2021/11/04 02:31:03;;;;;;;25.77;15.90;;;6.10;99.90;;;;;;5115318;28;20134;-73
2021/11/04 02:33:30;;;;;;;24.10;15.63;;;6.10;99.90;;;;;;5115317;28;20499;-72
2021/11/04 02:35:59;;;;;;;30.53;18.67;;;6.10;99.90;;;;;;5115994;28;20039;-72
2021/11/04 02:38:30;;;;;;;31.83;19.33;;;6.20;99.90;;;;;;5115457;28;20044;-73
2021/11/04 02:40:58;;;;;;;26.45;16.65;;;6.10;99.90;;;;;;5115867;28;20044;-73
2021/11/04 02:43:27;;;;;;;32.33;18.80;;;6.20;99.90;;;;;;5114399;28;20048;-72
2021/11/04 02:45:53;;;;;;;30.80;17.53;;;6.20;99.90;;;;;;5114711;28;20040;-74
2021/11/04 02:48:20;;;;;;;28.80;20.13;;;6.20;99.90;;;;;;5114517;28;20422;-75
2021/11/04 02:50:47;;;;;;;35.57;19.57;;;6.20;99.90;;;;;;5114514;28;20047;-74
2021/11/04 02:53:15;;;;;;;32.47;19.67;;;6.20;99.90;;;;;;5113991;28;20479;-73
2021/11/04 02:55:42;;;;;;;33.17;19.77;;;6.20;99.90;;;;;;5114841;28;20048;-74
2021/11/04 02:58:11;;;;;;;40.73;20.73;;;6.20;99.90;;;;;;5114514;28;20089;-74
2021/11/04 03:00:41;;;;;;;32.53;21.87;;;6.20;99.90;;;;;;5114346;28;20070;-74
2021/11/04 03:03:08;;;;;;;37.77;20.57;;;6.20;99.90;;;;;;5114009;28;20461;-73
2021/11/04 03:05:35;;;;;;;36.17;21.90;;;6.20;99.90;;;;;;5114310;28;20047;-73
2021/11/04 03:08:02;;;;;;;36.90;19.33;;;6.20;99.90;;;;;;5114080;28;20043;-73
2021/11/04 03:10:28;;;;;;;36.43;21.63;;;6.20;99.90;;;;;;5114194;28;20537;-72
2021/11/04 03:12:55;;;;;;;32.67;20.10;;;6.20;99.90;;;;;;5114207;28;20092;-73
2021/11/04 03:15:24;;;;;;;34.77;21.73;;;6.20;99.90;;;;;;5113773;28;20461;-73
2021/11/04 03:17:54;;;;;;;40.20;21.73;;;6.30;99.90;;;;;;5114254;28;20051;-73
2021/11/04 03:20:22;;;;;;;36.83;21.20;;;6.30;99.90;;;;;;5113699;27;20105;-73
2021/11/04 03:22:50;;;;;;;40.97;21.67;;;6.30;99.90;;;;;;5114089;28;20450;-74
2021/11/04 03:25:20;;;;;;;33.67;19.63;;;6.30;99.90;;;;;;5113686;28;20044;-73
2021/11/04 03:27:50;;;;;;;33.60;21.63;;;6.30;99.90;;;;;;5114117;28;20097;-72
2021/11/04 03:30:19;;;;;;;37.50;21.90;;;6.40;99.90;;;;;;5113749;28;20040;-72
2021/11/04 03:32:48;;;;;;;40.27;22.80;;;6.40;99.90;;;;;;5113682;28;20047;-73
2021/11/04 03:35:17;;;;;;;46.37;25.03;;;6.40;99.90;;;;;;5113063;28;20953;-72
2021/11/04 03:37:47;;;;;;;44.03;22.63;;;6.30;99.90;;;;;;5113680;28;20535;-74
2021/11/04 03:40:15;;;;;;;41.03;21.93;;;6.40;99.90;;;;;;5113428;28;20556;-74
2021/11/04 03:42:43;;;;;;;37.97;21.27;;;6.40;99.90;;;;;;5113534;28;20043;-73
2021/11/04 03:45:12;;;;;;;32.87;21.70;;;6.40;99.90;;;;;;5112866;28;20051;-72
2021/11/04 03:47:39;;;;;;;41.70;24.20;;;6.30;99.90;;;;;;5113160;28;20047;-73
2021/11/04 03:50:07;;;;;;;40.60;22.37;;;6.40;99.90;;;;;;5113232;28;20563;-73
2021/11/04 03:52:35;;;;;;;36.70;20.90;;;6.40;99.90;;;;;;5113268;28;20047;-73
2021/11/04 03:55:02;;;;;;;37.43;22.83;;;6.40;99.90;;;;;;5112806;28;20092;-74
2021/11/04 03:57:29;;;;;;;37.13;20.83;;;6.50;99.90;;;;;;5113320;27;20065;-73
2021/11/04 03:59:56;;;;;;;42.43;22.67;;;6.50;99.90;;;;;;5112918;28;20100;-72
2021/11/04 04:02:23;;;;;;;39.17;22.53;;;6.50;99.90;;;;;;5113328;28;20052;-74
2021/11/04 04:04:54;;;;;;;45.67;24.47;;;6.50;99.90;;;;;;5112725;28;20118;-72
2021/11/04 04:07:22;;;;;;;42.88;25.25;;;6.50;99.90;;;;;;5113015;28;20044;-73
2021/11/04 04:09:50;;;;;;;41.37;21.67;;;6.50;99.90;;;;;;5112920;28;20043;-73
2021/11/04 04:12:17;;;;;;;48.30;26.67;;;6.50;99.90;;;;;;5112754;28;20491;-73
2021/11/04 04:14:43;;;;;;;44.27;23.23;;;6.50;99.90;;;;;;5112377;28;20499;-72
2021/11/04 04:17:10;;;;;;;42.37;23.50;;;6.50;99.90;;;;;;5112941;28;20093;-72
2021/11/04 04:19:37;;;;;;;46.30;24.13;;;6.50;99.90;;;;;;5112834;28;20043;-74
2021/11/04 04:22:05;;;;;;;41.87;24.33;;;6.50;99.90;;;;;;5112843;28;20054;-73
2021/11/04 04:24:32;;;;;;;46.67;25.27;;;6.40;99.90;;;;;;5112264;28;20044;-72
2021/11/04 04:27:00;;;;;;;40.10;24.20;;;6.40;99.90;;;;;;5112641;28;20096;-72
2021/11/04 04:29:27;;;;;;;42.83;24.17;;;6.40;99.90;;;;;;5112717;28;20048;-72
2021/11/04 04:31:54;;;;;;;43.17;25.07;;;6.50;99.90;;;;;;5111977;28;20078;-73
2021/11/04 04:34:21;;;;;;;43.23;24.50;;;6.50;99.90;;;;;;5112187;28;20488;-72
2021/11/04 04:36:47;;;;;;;39.70;24.80;;;6.50;99.90;;;;;;5112350;28;20483;-72
2021/11/04 04:39:14;;;;;;;44.10;26.27;;;6.50;99.90;;;;;;5112395;28;20101;-73
2021/11/04 04:41:41;;;;;;;39.63;24.03;;;6.50;99.90;;;;;;5112307;28;20484;-72
2021/11/04 04:44:09;;;;;;;44.50;24.47;;;6.50;99.90;;;;;;5111946;28;20077;-72
2021/11/04 04:46:35;;;;;;;48.07;25.87;;;6.40;99.90;;;;;;5112722;28;20096;-72
2021/11/04 04:49:02;;;;;;;42.17;25.13;;;6.40;99.90;;;;;;5112172;28;20190;-73
2021/11/04 04:51:30;;;;;;;46.77;25.07;;;6.50;99.90;;;;;;5112278;28;20065;-73
2021/11/04 04:53:57;;;;;;;49.00;26.07;;;6.50;99.90;;;;;;5111927;28;20126;-72
2021/11/04 04:56:24;;;;;;;43.70;24.13;;;6.50;99.90;;;;;;5112332;28;20478;-70
2021/11/04 04:58:50;;;;;;;48.53;24.60;;;6.40;99.90;;;;;;5111935;28;20507;-73
2021/11/04 05:01:18;;;;;;;45.10;24.50;;;6.40;99.90;;;;;;5112289;28;20044;-72
2021/11/04 05:03:45;;;;;;;51.13;27.67;;;6.40;99.90;;;;;;5111642;28;20069;-74
2021/11/04 05:06:12;;;;;;;43.37;24.40;;;6.50;99.90;;;;;;5112111;28;20045;-69
2021/11/04 05:08:38;;;;;;;48.03;25.83;;;6.40;99.90;;;;;;5112031;28;20446;-72
2021/11/04 05:11:05;;;;;;;46.17;25.10;;;6.40;99.90;;;;;;5111897;28;20522;-73
2021/11/04 05:13:32;;;;;;;44.73;25.30;;;6.40;99.90;;;;;;5111665;28;20335;-73
2021/11/04 05:15:59;;;;;;;45.00;25.60;;;6.40;99.90;;;;;;5111987;28;20435;-73
2021/11/04 05:18:27;;;;;;;48.27;25.27;;;6.40;99.90;;;;;;5112017;28;20499;-73
2021/11/04 05:20:54;;;;;;;46.27;23.40;;;6.50;99.90;;;;;;5112058;28;20052;-71
2021/11/04 05:23:21;;;;;;;50.30;25.77;;;6.50;99.90;;;;;;5111293;28;20490;-71
2021/11/04 05:25:47;;;;;;;44.67;24.70;;;6.50;99.90;;;;;;5112476;28;20044;-73
2021/11/04 05:28:14;;;;;;;49.40;26.03;;;6.50;99.90;;;;;;5111997;28;20047;-70
2021/11/04 05:30:42;;;;;;;39.30;22.93;;;6.50;99.90;;;;;;5111733;28;20491;-73
2021/11/04 05:33:09;;;;;;;45.97;24.27;;;6.50;99.90;;;;;;5111376;28;20385;-71
2021/11/04 05:35:37;;;;;;;45.10;25.37;;;6.50;99.90;;;;;;5111861;28;20048;-70
2021/11/04 05:38:03;;;;;;;47.70;26.37;;;6.50;99.90;;;;;;5111534;28;20051;-71
2021/11/04 05:40:30;;;;;;;43.20;25.03;;;6.50;99.90;;;;;;5111964;28;20040;-71
2021/11/04 05:42:57;;;;;;;39.00;23.57;;;6.50;99.90;;;;;;5114244;28;20047;-70
2021/11/04 05:45:23;;;;;;;41.67;23.60;;;6.50;99.90;;;;;;5115173;28;20520;-71
2021/11/04 05:47:50;;;;;;;52.33;26.63;;;6.50;99.90;;;;;;5115544;28;20044;-71
2021/11/04 05:50:18;;;;;;;47.30;26.27;;;6.50;99.90;;;;;;5115423;28;20044;-70
2021/11/04 05:52:46;;;;;;;46.60;25.93;;;6.60;99.90;;;;;;5115448;28;20052;-71
2021/11/04 05:55:13;;;;;;;43.60;23.93;;;6.50;99.90;;;;;;5115063;28;20568;-71
2021/11/04 05:57:39;;;;;;;40.93;25.20;;;6.50;99.90;;;;;;5115659;28;20522;-73
2021/11/04 06:00:07;;;;;;;50.80;25.40;;;6.60;99.90;;;;;;5115447;28;20093;-72
2021/11/04 06:02:34;;;;;;;46.17;26.90;;;6.50;99.90;;;;;;5115409;28;20074;-72
2021/11/04 06:05:00;;;;;;;48.63;27.60;;;6.50;99.90;;;;;;5114775;28;20479;-72
2021/11/04 06:07:28;;;;;;;46.73;23.83;;;6.50;99.90;;;;;;5115506;28;20047;-71
2021/11/04 06:09:56;;;;;;;42.33;25.47;;;6.60;99.90;;;;;;5115389;28;20044;-70
2021/11/04 06:12:22;;;;;;;45.97;26.67;;;6.60;99.90;;;;;;5121070;28;20058;-72
2021/11/04 06:14:49;;;;;;;48.63;25.73;;;6.60;99.90;;;;;;5115722;28;20109;-73
2021/11/04 06:17:16;;;;;;;39.35;24.60;;;6.50;99.90;;;;;;5115222;28;20461;-75
2021/11/04 06:19:42;;;;;;;40.23;23.13;;;6.60;99.90;;;;;;5115170;28;20180;-73
2021/11/04 06:22:09;;;;;;;52.90;27.52;;;6.60;99.90;;;;;;5115304;28;20096;-72
2021/11/04 06:24:36;;;;;;;55.90;24.23;;;6.60;99.90;;;;;;5114585;28;20450;-73
2021/11/04 06:27:04;;;;;;;47.93;25.90;;;6.60;99.90;;;;;;5115167;28;20533;-70
2021/11/04 06:29:31;;;;;;;42.40;24.27;;;6.60;99.90;;;;;;5114650;28;20483;-69
2021/11/04 06:31:58;;;;;;;41.37;25.03;;;6.60;99.90;;;;;;5114880;28;20484;-71
2021/11/04 06:34:24;;;;;;;44.70;24.47;;;6.60;99.90;;;;;;5114192;28;20056;-71
2021/11/04 06:36:51;;;;;;;45.00;24.30;;;6.70;99.90;;;;;;5114981;28;20043;-77
2021/11/04 06:39:19;;;;;;;49.50;26.00;;;6.70;99.90;;;;;;5115487;28;20040;-76
2021/11/04 06:41:46;;;;;;;46.47;24.90;;;6.70;99.90;;;;;;5117094;28;20083;-77
2021/11/04 06:44:14;;;;;;;48.00;26.77;;;6.70;99.90;;;;;;5116656;28;20071;-75
2021/11/04 06:46:50;;;;;;;50.73;25.93;;;6.70;99.90;;;;;;5115821;28;20055;-74
2021/11/04 06:49:18;;;;;;;48.67;26.27;;;6.70;99.90;;;;;;5115116;28;20059;-72
2021/11/04 06:51:48;;;;;;;49.50;27.03;;;6.70;99.90;;;;;;5114716;28;20112;-71
2021/11/04 06:54:16;;;;;;;50.87;22.50;;;6.70;99.90;;;;;;5113556;28;20449;-71
2021/11/04 06:56:45;;;;;;;48.77;25.67;;;6.70;99.90;;;;;;5114283;28;20044;-71
2021/11/04 06:59:18;;;;;;;47.30;24.33;;;6.70;99.90;;;;;;5115453;28;20043;-73
2021/11/04 07:01:50;;;;;;;50.70;24.83;;;6.70;99.90;;;;;;5114857;28;20048;-74
2021/11/04 07:04:23;;;;;;;;;;;6.80;99.90;;;;;;5115368;28;20043;-68
2021/11/04 07:06:55;;;;;;;42.80;23.33;;;6.70;99.90;;;;;;5114321;28;19920;-69
2021/11/04 07:09:22;;;;;;;;;;;6.70;99.90;;;;;;5115209;28;20047;-78
2021/11/04 07:11:51;;;;;;;37.50;22.73;;;6.70;99.90;;;;;;5117776;28;19919;-77
2021/11/04 07:14:21;;;;;;;44.40;24.47;;;6.70;99.90;;;;;;5115137;28;20464;-75
2021/11/04 07:16:48;;;;;;;45.33;23.77;;;6.80;99.90;;;;;;5114575;28;20093;-71
2021/11/04 07:19:18;;;;;;;44.23;25.13;;;6.80;99.90;;;;;;5113934;28;20051;-71
2021/11/04 07:21:56;;;;;;;39.27;23.00;;;6.80;99.90;;;;;;5114063;28;20047;-73
2021/11/04 07:24:31;;;;;;;42.60;23.13;;;6.90;99.90;;;;;;5113373;28;20347;-71
2021/11/04 07:27:07;;;;;;;46.13;24.10;;;6.90;99.90;;;;;;5115134;28;20101;-73
2021/11/04 07:29:41;;;;;;;41.60;24.10;;;6.90;99.90;;;;;;5113583;28;20044;-69
2021/11/04 07:32:09;;;;;;;40.20;22.73;;;6.90;99.90;;;;;;5113706;28;20048;-71
2021/11/04 07:34:36;;;;;;;43.17;24.00;;;6.90;99.90;;;;;;5113711;28;20495;-74
2021/11/04 07:37:04;;;;;;;44.60;24.40;;;7.00;99.90;;;;;;5113901;28;20096;-73
2021/11/04 07:39:30;;;;;;;44.22;23.02;;;7.00;99.90;;;;;;5113616;28;20104;-72
2021/11/04 07:41:57;;;;;;;42.90;24.77;;;7.00;99.90;;;;;;5113658;28;20039;-72
2021/11/04 07:44:24;;;;;;;43.95;22.13;;;7.00;99.90;;;;;;5113032;28;20043;-72
2021/11/04 07:46:52;;;;;;;46.00;25.65;;;7.00;99.90;;;;;;5113382;28;20094;-71
2021/11/04 07:49:19;;;;;;;43.30;25.43;;;7.00;99.90;;;;;;5113182;28;20048;-76
2021/11/04 07:51:46;;;;;;;46.03;24.60;;;7.00;99.90;;;;;;5113498;28;20044;-74
2021/11/04 07:54:13;;;;;;;41.97;22.97;;;7.00;99.90;;;;;;5112779;28;20172;-73
2021/11/04 07:56:39;;;;;;;41.80;22.00;;;7.00;99.90;;;;;;5113084;28;20529;-72
2021/11/04 07:59:06;;;;;;;34.47;22.10;;;7.10;99.90;;;;;;5113164;28;20043;-73
2021/11/04 08:01:33;;;;;;;49.10;25.40;;;7.10;99.90;;;;;;5113015;28;20507;-73
2021/11/04 08:04:01;;;;;;;45.37;24.00;;;7.10;99.90;;;;;;5112308;28;20088;-72
2021/11/04 08:06:28;;;;;;;43.60;22.87;;;7.10;99.90;;;;;;5112295;28;20051;-73
2021/11/04 08:08:54;;;;;;;48.40;25.13;;;7.10;99.90;;;;;;5112752;28;20523;-72
2021/11/04 08:11:21;;;;;;;41.63;25.27;;;7.20;99.90;;;;;;5114723;28;20044;-78
2021/11/04 08:13:49;;;;;;;43.13;24.83;;;7.20;99.90;;;;;;5113664;28;20048;-77
2021/11/04 08:16:17;;;;;;;47.50;24.65;;;7.20;99.90;;;;;;5113496;28;20055;-77
2021/11/04 08:18:43;;;;;;;43.20;23.10;;;7.20;99.90;;;;;;5113851;28;20044;-74
2021/11/04 08:21:11;;;;;;;39.13;24.70;;;7.10;99.90;;;;;;5112929;28;20051;-71
2021/11/04 08:23:38;;;;;;;44.97;23.42;;;7.20;99.90;;;;;;5112267;28;20040;-76
2021/11/04 08:26:06;;;;;;;42.13;24.70;;;7.20;99.90;;;;;;5112827;28;20097;-74
2021/11/04 08:28:32;;;;;;;38.33;22.85;;;7.20;99.90;;;;;;5112656;28;20051;-74
2021/11/04 08:31:00;;;;;;;40.25;23.90;;;7.20;99.90;;;;;;5112650;28;20047;-76
2021/11/04 08:33:27;;;;;;;45.38;23.85;;;7.20;99.90;;;;;;5111885;28;20442;-75
2021/11/04 08:35:54;;;;;;;44.63;24.63;;;7.30;99.90;;;;;;5112578;28;20090;-74
2021/11/04 08:38:22;;;;;;;40.43;24.13;;;7.30;99.90;;;;;;5112522;28;20097;-75
2021/11/04 08:40:48;;;;;;;48.75;24.48;;;7.30;99.90;;;;;;5112205;28;20514;-74
2021/11/04 08:43:15;;;;;;;44.25;26.33;;;7.20;99.90;;;;;;5112093;28;20039;-74
2021/11/04 08:45:42;;;;;;;40.75;25.20;;;7.20;99.90;;;;;;5112834;28;20096;-71
2021/11/04 08:48:09;;;;;;;48.33;25.33;;;7.20;99.90;;;;;;5112636;28;20043;-71
2021/11/04 08:50:35;;;;;;;41.88;23.02;;;7.30;99.90;;;;;;5113192;28;20097;-72
2021/11/04 08:53:02;;;;;;;42.65;22.70;;;7.30;99.90;;;;;;5113957;28;20338;-71
2021/11/04 08:55:30;;;;;;;45.17;26.55;;;7.30;99.90;;;;;;5113262;28;20048;-71
2021/11/04 08:57:57;;;;;;;46.63;24.80;;;7.20;99.90;;;;;;5113633;28;20552;-72
2021/11/04 09:00:23;;;;;;;41.47;23.20;;;7.30;99.90;;;;;;5114382;28;20047;-71
2021/11/04 09:02:50;;;;;;;37.50;23.10;;;7.20;99.90;;;;;;5114914;28;20088;-72
2021/11/04 09:05:17;;;;;;;47.95;24.25;;;7.20;99.90;;;;;;5114815;28;20109;-72
2021/11/04 09:07:45;;;;;;;45.22;22.92;;;7.20;99.90;;;;;;5113783;28;20058;-74
2021/11/04 09:10:13;;;;;;;39.03;23.50;;;7.30;99.90;;;;;;5112722;28;20046;-71
2021/11/04 09:12:42;;;;;;;39.65;23.48;;;7.30;99.90;;;;;;5112434;28;20097;-75
2021/11/04 09:15:11;;;;;;;37.67;21.13;;;7.30;99.90;;;;;;5112055;28;20096;-74
2021/11/04 09:17:38;;;;;;;46.53;21.92;;;7.20;99.90;;;;;;5114333;28;20560;-72
2021/11/04 09:20:06;;;;;;;40.53;22.07;;;7.20;99.90;;;;;;5116691;28;20381;-73
2021/11/04 09:22:34;;;;;;;35.10;21.67;;;7.20;99.90;;;;;;5116785;28;20051;-71
2021/11/04 09:25:01;;;;;;;36.80;20.77;;;7.20;99.90;;;;;;5117218;28;20048;-72
2021/11/04 09:27:28;;;;;;;33.97;20.83;;;7.20;99.90;;;;;;5116515;28;20043;-73
2021/11/04 09:29:56;;;;;;;33.88;19.65;;;7.20;99.90;;;;;;5116159;28;20044;-72
2021/11/04 09:32:24;;;;;;;32.17;18.57;;;7.10;99.90;;;;;;5116162;28;20040;-73
2021/11/04 09:34:51;;;;;;;38.00;19.90;;;7.20;99.90;;;;;;5115476;28;20043;-70
2021/11/04 09:37:18;;;;;;;29.53;18.70;;;7.10;99.90;;;;;;5116032;28;20035;-71
2021/11/04 09:39:47;;;;;;;31.00;19.63;;;7.10;99.90;;;;;;5115874;28;20097;-75
2021/11/04 09:42:17;;;;;;;31.00;18.10;;;7.10;99.90;;;;;;5116131;28;20044;-73
2021/11/04 09:44:46;;;;;;;32.83;17.67;;;7.10;99.90;;;;;;5115445;28;20104;-77
2021/11/04 09:47:17;;;;;;;26.50;17.40;;;7.10;99.90;;;;;;5115531;28;20510;-71
2021/11/04 09:49:45;;;;;;;27.75;16.35;;;7.10;99.90;;;;;;5115819;28;20062;-74
2021/11/04 09:52:11;;;;;;;27.80;15.93;;;7.10;99.90;;;;;;5115948;28;20619;-72
2021/11/04 09:54:38;;;;;;;24.70;15.43;;;7.00;99.90;;;;;;5115357;28;20096;-72
2021/11/04 09:57:08;;;;;;;27.57;16.40;;;7.00;99.90;;;;;;5115802;28;20055;-73
2021/11/04 09:59:35;;;;;;;26.47;15.00;;;7.00;99.90;;;;;;5115410;28;20454;-71
2021/11/04 10:02:14;;;;;;;25.13;15.13;;;6.90;99.90;;;;;;5115649;28;20040;-73
2021/11/04 10:04:43;;;;;;;23.33;14.67;;;6.90;99.90;;;;;;5114813;28;20054;-71
2021/11/04 10:07:11;;;;;;;24.37;14.23;;;7.00;99.90;;;;;;5115609;28;20046;-73
2021/11/04 10:09:37;;;;;;;24.00;13.47;;;7.00;99.90;;;;;;5115886;28;20070;-71
2021/11/04 10:12:06;;;;;;;25.87;16.03;;;7.00;99.90;;;;;;5115451;28;20047;-71
2021/11/04 10:14:34;;;;;;;25.67;15.27;;;7.10;99.90;;;;;;5114720;28;20696;-71
2021/11/04 10:17:01;;;;;;;19.52;13.20;;;7.00;99.90;;;;;;5115191;28;20059;-71
2021/11/04 10:19:41;;;;;;;23.63;14.03;;;7.00;99.90;;;;;;5115227;28;20052;-71
2021/11/04 10:22:10;;;;;;;26.10;14.10;;;7.10;99.90;;;;;;5115282;28;20463;-71
2021/11/04 10:24:47;;;;;;;21.57;13.97;;;7.00;99.90;;;;;;5114586;28;20043;-72
2021/11/04 10:27:29;;;;;;;22.07;13.63;;;7.10;99.90;;;;;;5115069;28;20048;-71
2021/11/04 10:29:56;;;;;;;21.40;12.30;;;7.00;99.90;;;;;;5113945;28;20142;-72
2021/11/04 10:32:35;;;;;;;23.53;13.30;;;7.00;99.90;;;;;;5115131;28;20044;-70
2021/11/04 10:35:10;;;;;;;23.33;13.07;;;7.10;99.90;;;;;;5114438;28;20051;-71
2021/11/04 10:37:50;;;;;;;20.63;12.68;;;7.20;99.90;;;;;;5114882;28;20054;-72
2021/11/04 10:40:18;;;;;;;19.90;11.73;;;7.20;99.90;;;;;;5114992;28;20044;-74
2021/11/04 10:42:54;;;;;;;20.15;13.30;;;7.20;99.90;;;;;;5115255;28;20122;-76
2021/11/04 10:45:24;;;;;;;17.50;11.07;;;7.20;99.90;;;;;;5115196;27;20526;-76
2021/11/04 10:48:17;;;;;;;13.57;10.90;;;7.20;99.90;;;;;;5115244;27;20048;-70
2021/11/04 10:50:45;;;;;;;17.57;10.53;;;7.20;99.90;;;;;;5114724;28;20108;-73
2021/11/04 10:53:13;;;;;;;15.98;10.40;;;7.20;99.90;;;;;;5113907;28;20488;-74
2021/11/04 10:55:40;;;;;;;14.32;11.73;;;7.30;99.90;;;;;;5114607;28;20403;-73
2021/11/04 10:58:26;;;;;;;13.73;9.00;;;7.20;99.90;;;;;;5114274;28;20043;-75
2021/11/04 11:00:53;;;;;;;12.82;8.95;;;7.20;99.90;;;;;;5114611;28;20066;-70
2021/11/04 11:03:23;;;;;;;14.63;8.97;;;7.20;99.90;;;;;;5114187;28;20093;-74
2021/11/04 11:05:50;;;;;;;14.75;8.90;;;7.20;99.90;;;;;;5114417;27;20065;-72
2021/11/04 11:08:17;;;;;;;9.13;7.53;;;7.20;99.90;;;;;;5114219;28;20492;-73
2021/11/04 11:10:44;;;;;;;12.55;8.60;;;7.20;99.90;;;;;;5114152;28;20415;-73
2021/11/04 11:13:11;;;;;;;11.37;7.63;;;7.20;99.90;;;;;;5113678;28;20044;-73
2021/11/04 11:15:40;;;;;;;12.05;9.02;;;7.20;99.90;;;;;;5114065;28;20047;-73
2021/11/04 11:18:08;;;;;;;12.53;8.57;;;7.20;99.90;;;;;;5114432;28;20091;-73
2021/11/04 11:20:41;;;;;;;12.47;7.70;;;7.20;99.90;;;;;;5114170;28;20056;-72
2021/11/04 11:23:08;;;;;;;13.57;7.43;;;7.20;99.90;;;;;;5113592;28;20120;-73
2021/11/04 11:25:36;;;;;;;11.95;7.82;;;7.20;99.90;;;;;;5113796;28;20047;-72
2021/11/04 11:28:03;;;;;;;14.23;9.50;;;7.20;99.90;;;;;;5113605;28;20537;-73
2021/11/04 11:30:29;;;;;;;10.95;7.70;;;7.20;99.90;;;;;;5113662;28;20392;-73
2021/11/04 11:33:18;;;;;;;12.85;8.10;;;7.20;99.90;;;;;;5114111;28;20052;-73
2021/11/04 11:36:08;;;;;;;11.27;7.17;;;7.20;99.90;;;;;;5113800;28;20126;-73
2021/11/04 11:39:07;;;;;;;9.75;6.43;;;7.30;99.90;;;;;;5113485;28;20047;-72
2021/11/04 11:41:55;;;;;;;8.82;6.88;;;7.30;99.90;;;;;;5113663;28;20048;-73
2021/11/04 11:44:37;;;;;;;10.27;7.27;;;7.30;99.90;;;;;;5112961;28;20043;-73
2021/11/04 11:47:06;;;;;;;9.27;6.30;;;7.30;99.90;;;;;;5113574;28;20419;-72
2021/11/04 11:49:34;;;;;;;10.70;6.90;;;7.30;99.90;;;;;;5113306;28;20491;-72
2021/11/04 11:52:02;;;;;;;10.60;6.78;;;7.30;99.90;;;;;;5113200;28;20050;-74
2021/11/04 11:55:06;;;;;;;10.30;6.57;;;7.20;99.90;;;;;;5112809;28;20101;-73
2021/11/04 11:57:34;;;;;;;11.40;7.22;;;7.30;99.90;;;;;;5050288;28;20049;-74
2021/11/04 12:00:02;;;;;;;8.73;6.03;;;7.30;99.90;;;;;;5051660;28;20049;-74
2021/11/04 12:02:54;;;;;;;6.50;5.88;;;7.30;99.90;;;;;;5050851;28;20098;-73
2021/11/04 12:05:38;;;;;;;10.25;6.32;;;7.30;99.90;;;;;;5036416;28;20130;-76
2021/11/04 12:08:37;;;;;;;10.05;6.30;;;7.20;99.90;;;;;;5050129;28;20072;-75
2021/11/04 12:11:08;;;;;;;9.23;5.70;;;7.20;99.90;;;;;;5050104;28;20055;-73
2021/11/04 12:13:40;;;;;;;10.50;6.40;;;7.30;99.90;;;;;;5049497;28;20056;-71
2021/11/04 12:16:13;;;;;;;9.20;7.43;;;7.30;99.90;;;;;;5050219;28;20087;-73
2021/11/04 12:18:51;;;;;;;6.60;5.47;;;7.30;99.90;;;;;;5049877;28;20045;-74
2021/11/04 12:21:23;;;;;;;7.17;5.30;;;7.30;99.90;;;;;;5059078;28;20057;-72
2021/11/04 12:23:52;;;;;;;8.05;5.85;;;7.40;99.90;;;;;;5049450;28;20053;-73
2021/11/04 12:26:31;;;;;;;7.97;6.63;;;7.40;99.90;;;;;;5049938;28;20112;-73
2021/11/04 12:28:58;;;;;;;7.75;5.97;;;7.40;99.90;;;;;;5095408;28;20096;-70
2021/11/04 12:31:27;;;;;;;6.60;5.00;;;7.30;99.90;;;;;;5112899;28;20044;-72
2021/11/04 12:33:54;;;;;;;6.75;5.18;;;7.30;99.90;;;;;;5113348;28;20168;-75
2021/11/04 12:36:29;;;;;;;6.97;5.30;;;7.40;99.90;;;;;;5121560;28;20548;-74
2021/11/04 12:38:58;;;;;;;6.35;4.55;;;7.40;99.90;;;;;;5114870;28;20051;-74
2021/11/04 12:41:25;;;;;;;6.00;4.23;;;7.40;99.90;;;;;;5112812;28;20040;-73
2021/11/04 12:43:52;;;;;;;6.60;4.65;;;7.40;99.90;;;;;;5112189;28;20044;-72
2021/11/04 12:46:22;;;;;;;5.45;4.20;;;7.40;99.90;;;;;;5112654;28;20051;-71
2021/11/04 12:48:50;;;;;;;6.32;5.43;;;7.40;99.90;;;;;;5112187;28;20135;-72